sensor_id;sensor_type;location;lat;lon;timestamp;P1;durP1;ratioP1;P2;durP2;ratioP2
63018;SDS011;49105;46.046;10.760;2023-07-29T00:02:05;2.40;;;2.40;;
63018;SDS011;49105;46.046;10.760;2023-07-29T00:04:39;2.58;;;2.53;;
63018;SDS011;49105;46.046;10.760;2023-07-29T00:07:11;2.22;;;2.22;;
63018;SDS011;49105;46.046;10.760;2023-07-29T00:09:48;2.75;;;2.65;;
63018;SDS011;49105;46.046;10.760;2023-07-29T00:12:14;2.70;;;2.60;;
63018;SDS011;49105;46.046;10.760;2023-07-29T00:14:39;2.63;;;2.60;;
63018;SDS011;49105;46.046;10.760;2023-07-29T00:17:05;2.38;;;2.33;;
63018;SDS011;49105;46.046;10.760;2023-07-29T00:19:37;2.15;;;2.15;;
63018;SDS011;49105;46.046;10.760;2023-07-29T00:22:15;2.20;;;2.20;;
63018;SDS011;49105;46.046;10.760;2023-07-29T00:24:51;2.22;;;2.22;;
63018;SDS011;49105;46.046;10.760;2023-07-29T00:27:24;2.20;;;2.20;;
63018;SDS011;49105;46.046;10.760;2023-07-29T00:29:50;2.42;;;2.40;;
63018;SDS011;49105;46.046;10.760;2023-07-29T00:32:16;2.28;;;2.28;;
63018;SDS011;49105;46.046;10.760;2023-07-29T00:34:48;3.03;;;2.92;;
63018;SDS011;49105;46.046;10.760;2023-07-29T00:37:22;2.40;;;2.40;;
63018;SDS011;49105;46.046;10.760;2023-07-29T00:40:00;3.03;;;2.70;;
63018;SDS011;49105;46.046;10.760;2023-07-29T00:42:26;2.78;;;2.70;;
63018;SDS011;49105;46.046;10.760;2023-07-29T00:44:54;3.30;;;3.00;;
63018;SDS011;49105;46.046;10.760;2023-07-29T00:47:20;2.70;;;2.50;;
63018;SDS011;49105;46.046;10.760;2023-07-29T00:49:47;2.40;;;2.40;;
63018;SDS011;49105;46.046;10.760;2023-07-29T00:52:12;2.40;;;2.38;;
63018;SDS011;49105;46.046;10.760;2023-07-29T00:54:39;3.13;;;3.00;;
63018;SDS011;49105;46.046;10.760;2023-07-29T00:57:11;3.17;;;3.08;;
63018;SDS011;49105;46.046;10.760;2023-07-29T00:59:46;2.88;;;2.78;;
63018;SDS011;49105;46.046;10.760;2023-07-29T01:02:12;2.47;;;2.40;;
63018;SDS011;49105;46.046;10.760;2023-07-29T01:04:37;2.38;;;2.35;;
63018;SDS011;49105;46.046;10.760;2023-07-29T01:07:23;2.30;;;2.30;;
63018;SDS011;49105;46.046;10.760;2023-07-29T01:15:26;3.45;;;3.30;;
63018;SDS011;49105;46.046;10.760;2023-07-29T01:18:16;3.00;;;2.90;;
63018;SDS011;49105;46.046;10.760;2023-07-29T01:20:58;2.60;;;2.50;;
63018;SDS011;49105;46.046;10.760;2023-07-29T01:23:31;3.20;;;3.10;;
63018;SDS011;49105;46.046;10.760;2023-07-29T01:31:47;3.33;;;3.22;;
63018;SDS011;49105;46.046;10.760;2023-07-29T01:37:18;4.07;;;3.88;;
63018;SDS011;49105;46.046;10.760;2023-07-29T01:39:47;3.00;;;2.90;;
63018;SDS011;49105;46.046;10.760;2023-07-29T01:42:25;2.97;;;2.88;;
63018;SDS011;49105;46.046;10.760;2023-07-29T01:45:00;3.47;;;3.38;;
63018;SDS011;49105;46.046;10.760;2023-07-29T01:47:34;2.75;;;2.65;;
63018;SDS011;49105;46.046;10.760;2023-07-29T01:50:11;3.10;;;3.00;;
63018;SDS011;49105;46.046;10.760;2023-07-29T01:52:42;3.22;;;3.10;;
63018;SDS011;49105;46.046;10.760;2023-07-29T01:55:08;2.90;;;2.80;;
63018;SDS011;49105;46.046;10.760;2023-07-29T01:57:34;2.90;;;2.80;;
63018;SDS011;49105;46.046;10.760;2023-07-29T02:00:02;2.50;;;2.40;;
63018;SDS011;49105;46.046;10.760;2023-07-29T02:02:35;3.28;;;3.17;;
63018;SDS011;49105;46.046;10.760;2023-07-29T02:05:00;2.80;;;2.70;;
63018;SDS011;49105;46.046;10.760;2023-07-29T02:07:26;2.83;;;2.72;;
63018;SDS011;49105;46.046;10.760;2023-07-29T02:09:51;2.95;;;2.75;;
63018;SDS011;49105;46.046;10.760;2023-07-29T02:12:24;2.97;;;2.88;;
63018;SDS011;49105;46.046;10.760;2023-07-29T02:14:50;3.08;;;2.92;;
63018;SDS011;49105;46.046;10.760;2023-07-29T02:17:22;2.50;;;2.50;;
63018;SDS011;49105;46.046;10.760;2023-07-29T02:19:54;3.10;;;3.00;;
63018;SDS011;49105;46.046;10.760;2023-07-29T02:22:26;3.17;;;3.08;;
63018;SDS011;49105;46.046;10.760;2023-07-29T02:24:51;3.15;;;3.05;;
63018;SDS011;49105;46.046;10.760;2023-07-29T02:27:17;2.30;;;2.30;;
63018;SDS011;49105;46.046;10.760;2023-07-29T02:29:48;2.90;;;2.80;;
63018;SDS011;49105;46.046;10.760;2023-07-29T02:32:13;4.93;;;3.05;;
63018;SDS011;49105;46.046;10.760;2023-07-29T02:34:39;2.75;;;2.65;;
63018;SDS011;49105;46.046;10.760;2023-07-29T02:37:05;3.08;;;2.97;;
63018;SDS011;49105;46.046;10.760;2023-07-29T02:39:30;2.65;;;2.63;;
63018;SDS011;49105;46.046;10.760;2023-07-29T02:42:08;2.97;;;2.88;;
63018;SDS011;49105;46.046;10.760;2023-07-29T02:44:33;2.85;;;2.75;;
63018;SDS011;49105;46.046;10.760;2023-07-29T02:46:59;3.33;;;3.13;;
63018;SDS011;49105;46.046;10.760;2023-07-29T02:49:27;3.53;;;3.42;;
63018;SDS011;49105;46.046;10.760;2023-07-29T02:51:59;3.00;;;2.90;;
63018;SDS011;49105;46.046;10.760;2023-07-29T02:54:30;2.65;;;2.63;;
63018;SDS011;49105;46.046;10.760;2023-07-29T02:56:56;2.90;;;2.80;;
63018;SDS011;49105;46.046;10.760;2023-07-29T02:59:27;2.78;;;2.67;;
63018;SDS011;49105;46.046;10.760;2023-07-29T03:02:02;2.55;;;2.55;;
63018;SDS011;49105;46.046;10.760;2023-07-29T03:07:49;2.75;;;2.65;;
63018;SDS011;49105;46.046;10.760;2023-07-29T03:10:15;2.55;;;2.50;;
63018;SDS011;49105;46.046;10.760;2023-07-29T03:12:56;2.67;;;2.58;;
63018;SDS011;49105;46.046;10.760;2023-07-29T03:15:25;3.13;;;3.03;;
63018;SDS011;49105;46.046;10.760;2023-07-29T03:17:57;2.50;;;2.40;;
63018;SDS011;49105;46.046;10.760;2023-07-29T03:20:29;2.20;;;2.20;;
63018;SDS011;49105;46.046;10.760;2023-07-29T03:23:07;2.20;;;2.20;;
63018;SDS011;49105;46.046;10.760;2023-07-29T03:25:41;2.28;;;2.28;;
63018;SDS011;49105;46.046;10.760;2023-07-29T03:28:13;2.33;;;2.33;;
63018;SDS011;49105;46.046;10.760;2023-07-29T03:30:48;2.30;;;2.30;;
63018;SDS011;49105;46.046;10.760;2023-07-29T03:33:22;2.10;;;2.10;;
63018;SDS011;49105;46.046;10.760;2023-07-29T03:35:58;3.72;;;2.38;;
63018;SDS011;49105;46.046;10.760;2023-07-29T03:38:36;1.92;;;1.92;;
63018;SDS011;49105;46.046;10.760;2023-07-29T03:41:08;2.17;;;2.17;;
63018;SDS011;49105;46.046;10.760;2023-07-29T03:43:36;2.42;;;2.33;;
63018;SDS011;49105;46.046;10.760;2023-07-29T03:46:02;1.92;;;1.92;;
63018;SDS011;49105;46.046;10.760;2023-07-29T03:48:28;1.85;;;1.85;;
63018;SDS011;49105;46.046;10.760;2023-07-29T03:50:53;2.25;;;2.20;;
63018;SDS011;49105;46.046;10.760;2023-07-29T03:53:22;4.15;;;2.50;;
63018;SDS011;49105;46.046;10.760;2023-07-29T03:55:57;1.80;;;1.80;;
63018;SDS011;49105;46.046;10.760;2023-07-29T03:58:22;2.20;;;2.20;;
63018;SDS011;49105;46.046;10.760;2023-07-29T04:00:48;2.00;;;2.00;;
63018;SDS011;49105;46.046;10.760;2023-07-29T04:03:13;2.10;;;2.10;;
63018;SDS011;49105;46.046;10.760;2023-07-29T04:05:48;1.83;;;1.83;;
63018;SDS011;49105;46.046;10.760;2023-07-29T04:08:19;2.10;;;2.10;;
63018;SDS011;49105;46.046;10.760;2023-07-29T04:10:48;2.63;;;2.53;;
63018;SDS011;49105;46.046;10.760;2023-07-29T04:13:22;2.53;;;2.42;;
63018;SDS011;49105;46.046;10.760;2023-07-29T04:15:54;2.10;;;2.10;;
63018;SDS011;49105;46.046;10.760;2023-07-29T04:18:25;2.10;;;2.10;;
63018;SDS011;49105;46.046;10.760;2023-07-29T04:21:00;2.00;;;2.00;;
63018;SDS011;49105;46.046;10.760;2023-07-29T04:23:32;2.65;;;2.55;;
63018;SDS011;49105;46.046;10.760;2023-07-29T04:25:57;2.33;;;2.28;;
63018;SDS011;49105;46.046;10.760;2023-07-29T04:28:29;2.05;;;2.05;;
63018;SDS011;49105;46.046;10.760;2023-07-29T04:33:29;2.17;;;2.10;;
63018;SDS011;49105;46.046;10.760;2023-07-29T04:35:56;2.42;;;2.33;;
63018;SDS011;49105;46.046;10.760;2023-07-29T04:38:21;2.00;;;2.00;;
63018;SDS011;49105;46.046;10.760;2023-07-29T04:40:53;2.53;;;2.42;;
63018;SDS011;49105;46.046;10.760;2023-07-29T04:43:18;2.10;;;2.10;;
63018;SDS011;49105;46.046;10.760;2023-07-29T04:45:50;6.70;;;2.35;;
63018;SDS011;49105;46.046;10.760;2023-07-29T04:48:23;2.30;;;2.20;;
63018;SDS011;49105;46.046;10.760;2023-07-29T04:50:58;2.00;;;2.00;;
63018;SDS011;49105;46.046;10.760;2023-07-29T04:53:29;1.98;;;1.98;;
63018;SDS011;49105;46.046;10.760;2023-07-29T04:55:55;2.50;;;2.40;;
63018;SDS011;49105;46.046;10.760;2023-07-29T04:58:20;2.13;;;2.13;;
63018;SDS011;49105;46.046;10.760;2023-07-29T05:00:46;2.13;;;2.00;;
63018;SDS011;49105;46.046;10.760;2023-07-29T05:03:18;2.35;;;2.25;;
63018;SDS011;49105;46.046;10.760;2023-07-29T05:05:52;2.08;;;2.08;;
63018;SDS011;49105;46.046;10.760;2023-07-29T05:08:20;20.90;;;2.63;;
63018;SDS011;49105;46.046;10.760;2023-07-29T05:10:55;2.42;;;2.33;;
63018;SDS011;49105;46.046;10.760;2023-07-29T05:13:21;1.98;;;1.98;;
63018;SDS011;49105;46.046;10.760;2023-07-29T05:15:50;1.90;;;1.90;;
63018;SDS011;49105;46.046;10.760;2023-07-29T05:18:16;1.80;;;1.80;;
63018;SDS011;49105;46.046;10.760;2023-07-29T05:20:54;2.08;;;2.00;;
63018;SDS011;49105;46.046;10.760;2023-07-29T05:23:28;1.73;;;1.73;;
63018;SDS011;49105;46.046;10.760;2023-07-29T05:26:03;1.70;;;1.70;;
63018;SDS011;49105;46.046;10.760;2023-07-29T05:28:38;2.28;;;2.17;;
63018;SDS011;49105;46.046;10.760;2023-07-29T05:31:03;2.45;;;2.38;;
63018;SDS011;49105;46.046;10.760;2023-07-29T05:33:29;2.10;;;2.00;;
63018;SDS011;49105;46.046;10.760;2023-07-29T05:36:03;1.90;;;1.90;;
63018;SDS011;49105;46.046;10.760;2023-07-29T05:38:36;1.80;;;1.73;;
63018;SDS011;49105;46.046;10.760;2023-07-29T05:41:11;2.17;;;2.08;;
63018;SDS011;49105;46.046;10.760;2023-07-29T05:43:49;1.70;;;1.70;;
63018;SDS011;49105;46.046;10.760;2023-07-29T05:46:23;1.83;;;1.77;;
63018;SDS011;49105;46.046;10.760;2023-07-29T05:48:51;1.50;;;1.50;;
63018;SDS011;49105;46.046;10.760;2023-07-29T05:51:23;2.17;;;2.10;;
63018;SDS011;49105;46.046;10.760;2023-07-29T05:53:48;1.50;;;1.50;;
63018;SDS011;49105;46.046;10.760;2023-07-29T05:59:36;1.48;;;1.48;;
63018;SDS011;49105;46.046;10.760;2023-07-29T06:02:13;1.35;;;1.35;;
63018;SDS011;49105;46.046;10.760;2023-07-29T06:04:42;1.80;;;1.70;;
63018;SDS011;49105;46.046;10.760;2023-07-29T06:07:07;3.75;;;1.67;;
63018;SDS011;49105;46.046;10.760;2023-07-29T06:09:33;1.83;;;1.83;;
63018;SDS011;49105;46.046;10.760;2023-07-29T06:11:59;1.38;;;1.38;;
63018;SDS011;49105;46.046;10.760;2023-07-29T06:14:31;2.03;;;1.58;;
63018;SDS011;49105;46.046;10.760;2023-07-29T06:16:56;1.52;;;1.52;;
